Time;durP1;ratioP1;P1;durP2;ratioP2;P2;SDS_P1;SDS_P2;PMS_P1;PMS_P2;Temp;Humidity;BMP_temperature;BMP_pressure;BME280_temperature;BME280_humidity;BME280_pressure;Samples;Min_cycle;Max_cycle;Signal;HPM_P1;HPM_P2
2022/12/30 00:02:38;;;;;;;18.73;7.40;;;;;;;;;;6236436;23;20190;-88
2022/12/30 00:05:43;;;;;;;16.43;6.63;;;;;;;;;;6237086;22;20305;-88
2022/12/30 00:08:49;;;;;;;19.93;7.67;;;;;;;;;;6237251;23;20455;-88
2022/12/30 00:33:05;;;;;;;15.33;6.97;;;;;;;;;;6236458;23;20170;-88
2022/12/30 00:35:45;;;;;;;14.33;5.57;;;;;;;;;;6237912;23;20170;-87
2022/12/30 00:38:49;;;;;;;13.10;5.27;;;;;;;;;;6235748;23;20212;-88
2022/12/30 00:45:18;;;;;;;10.27;4.90;;;;;;;;;;6237696;23;20170;-89
2022/12/30 00:58:32;;;;;;;12.17;5.33;;;;;;;;;;6210704;23;20249;-90
2022/12/30 01:01:39;;;;;;;12.90;5.77;;;;;;;;;;6158501;23;20216;-90
2022/12/30 01:04:44;;;;;;;13.57;6.03;;;;;;;;;;5962186;23;20221;-88
2022/12/30 01:07:49;;;;;;;12.27;6.13;;;;;;;;;;5684389;24;20197;-91
2022/12/30 01:10:54;;;;;;;13.33;6.23;;;;;;;;;;5753789;24;20198;-88
2022/12/30 01:13:59;;;;;;;12.50;6.03;;;;;;;;;;5749911;25;20178;-89
2022/12/30 01:17:06;;;;;;;14.43;6.13;;;;;;;;;;5749281;25;20186;-90
2022/12/30 01:20:12;;;;;;;14.10;6.07;;;;;;;;;;5748576;25;20312;-87
2022/12/30 01:23:17;;;;;;;12.80;5.87;;;;;;;;;;5734968;25;20214;-88
2022/12/30 01:26:22;;;;;;;11.00;5.37;;;;;;;;;;5750339;25;20181;-89
2022/12/30 01:29:28;;;;;;;14.00;6.03;;;;;;;;;;5750634;25;20213;-90
2022/12/30 01:32:36;;;;;;;12.93;5.93;;;;;;;;;;5750336;25;20639;-88
2022/12/30 01:35:41;;;;;;;14.43;6.03;;;;;;;;;;5750418;25;20186;-91
2022/12/30 01:38:46;;;;;;;15.40;6.00;;;;;;;;;;5748968;24;20179;-88
2022/12/30 01:41:51;;;;;;;12.23;6.13;;;;;;;;;;5750732;25;20202;-88
2022/12/30 01:44:59;;;;;;;13.07;6.10;;;;;;;;;;5751217;25;20175;-89
2022/12/30 01:48:08;;;;;;;11.57;5.83;;;;;;;;;;5748486;25;20198;-91
2022/12/30 01:51:15;;;;;;;14.47;5.80;;;;;;;;;;5749654;25;20162;-88
2022/12/30 01:54:20;;;;;;;12.73;6.00;;;;;;;;;;5747726;25;20264;-90
2022/12/30 01:57:25;;;;;;;15.73;6.40;;;;;;;;;;5749940;25;20170;-90
2022/12/30 02:00:30;;;;;;;12.87;5.63;;;;;;;;;;5749190;25;20182;-89
2022/12/30 02:03:40;;;;;;;12.83;5.37;;;;;;;;;;5750061;24;20285;-89
2022/12/30 02:06:49;;;;;;;9.83;5.17;;;;;;;;;;5749825;24;20261;-87
2022/12/30 02:09:54;;;;;;;13.33;5.83;;;;;;;;;;5787481;24;20747;-87
2022/12/30 02:13:00;;;;;;;14.17;5.70;;;;;;;;;;5924954;24;20237;-88
2022/12/30 02:16:14;;;;;;;13.87;5.50;;;;;;;;;;5925013;24;20266;-89
2022/12/30 02:19:36;;;;;;;12.83;5.63;;;;;;;;;;5940800;24;20179;-87
2022/12/30 02:22:52;;;;;;;15.03;6.07;;;;;;;;;;5923237;24;20198;-88
2022/12/30 02:26:02;;;;;;;13.67;6.00;;;;;;;;;;5910213;24;20163;-89
2022/12/30 02:29:37;;;;;;;10.30;5.70;;;;;;;;;;5939940;24;20178;-89
2022/12/30 02:32:58;;;;;;;13.57;5.57;;;;;;;;;;5906584;24;20179;-88
2022/12/30 02:36:08;;;;;;;19.13;5.77;;;;;;;;;;5938157;24;20163;-87
2022/12/30 02:39:15;;;;;;;14.07;6.20;;;;;;;;;;5924134;24;20239;-88
2022/12/30 02:45:49;;;;;;;13.07;5.10;;;;;;;;;;5923903;24;20186;-92
2022/12/30 02:48:57;;;;;;;12.17;5.67;;;;;;;;;;5924989;24;20170;-87
2022/12/30 02:52:14;;;;;;;14.60;5.73;;;;;;;;;;5941854;24;20159;-88
2022/12/30 02:55:19;;;;;;;14.17;5.93;;;;;;;;;;5941143;24;20232;-90
2022/12/30 02:58:26;;;;;;;15.93;6.27;;;;;;;;;;5926149;24;20179;-89
2022/12/30 03:05:06;;;;;;;11.43;5.70;;;;;;;;;;5925773;24;20178;-88
2022/12/30 03:08:17;;;;;;;12.60;6.07;;;;;;;;;;5948517;24;20193;-91
2022/12/30 03:11:22;;;;;;;10.17;5.03;;;;;;;;;;5737629;24;20200;-91
2022/12/30 04:44:01;;;;;;;13.63;5.80;;;;;;;;;;6245933;22;1295868;-91
2022/12/30 04:47:07;;;;;;;13.30;6.30;;;;;;;;;;6300768;22;20247;-86
2022/12/30 04:50:16;;;;;;;16.93;6.53;;;;;;;;;;6300943;22;20169;-88
2022/12/30 04:53:21;;;;;;;13.63;6.27;;;;;;;;;;6299665;22;20249;-89
2022/12/30 04:56:26;;;;;;;13.73;6.40;;;;;;;;;;6301394;22;20235;-90
2022/12/30 04:59:33;;;;;;;10.53;6.03;;;;;;;;;;6300933;22;20196;-89
2022/12/30 05:02:43;;;;;;;11.30;5.67;;;;;;;;;;6299858;22;20165;-89
2022/12/30 05:05:48;;;;;;;14.63;5.90;;;;;;;;;;6302072;22;20207;-89
2022/12/30 05:08:53;;;;;;;13.60;5.70;;;;;;;;;;6301099;22;20161;-89
2022/12/30 05:11:58;;;;;;;13.93;6.37;;;;;;;;;;6319504;22;20161;-89
2022/12/30 05:15:05;;;;;;;13.50;5.63;;;;;;;;;;6300549;22;20208;-88
2022/12/30 05:18:11;;;;;;;12.10;6.03;;;;;;;;;;6301595;22;20168;-90
2022/12/30 05:21:16;;;;;;;14.10;6.13;;;;;;;;;;6302918;22;20177;-90
2022/12/30 05:27:44;;;;;;;12.77;6.30;;;;;;;;;;6300236;22;20166;-88
2022/12/30 05:30:51;;;;;;;14.83;6.30;;;;;;;;;;6300631;22;20161;-90
2022/12/30 05:33:56;;;;;;;15.10;6.33;;;;;;;;;;6300144;22;20166;-89
2022/12/30 05:37:01;;;;;;;19.53;7.00;;;;;;;;;;6301559;22;20173;-88
2022/12/30 05:40:07;;;;;;;14.63;6.77;;;;;;;;;;6301892;22;20318;-87
2022/12/30 05:43:17;;;;;;;15.50;6.27;;;;;;;;;;6300616;22;20157;-90
2022/12/30 05:46:24;;;;;;;14.30;6.03;;;;;;;;;;6301403;22;20168;-87
2022/12/30 05:49:29;;;;;;;14.47;6.90;;;;;;;;;;6301889;22;20177;-90
2022/12/30 05:52:34;;;;;;;12.37;6.00;;;;;;;;;;6301025;22;20172;-90
2022/12/30 05:55:39;;;;;;;13.37;6.40;;;;;;;;;;6301859;22;20237;-88
2022/12/30 05:58:44;;;;;;;16.00;6.07;;;;;;;;;;6302024;22;20177;-88
2022/12/30 06:01:51;;;;;;;13.90;6.50;;;;;;;;;;6299720;22;20169;-86
2022/12/30 06:04:57;;;;;;;13.37;6.47;;;;;;;;;;6299628;22;20661;-89
2022/12/30 06:08:02;;;;;;;13.27;6.63;;;;;;;;;;6300513;22;20187;-88
2022/12/30 06:11:07;;;;;;;15.73;7.07;;;;;;;;;;6299084;22;20192;-90
2022/12/30 06:14:17;;;;;;;13.27;6.50;;;;;;;;;;6300160;22;20499;-89
2022/12/30 06:17:23;;;;;;;13.43;6.57;;;;;;;;;;6299361;22;20165;-89
2022/12/30 06:20:28;;;;;;;15.40;6.53;;;;;;;;;;6301435;22;20252;-89
2022/12/30 06:23:33;;;;;;;12.17;7.00;;;;;;;;;;6299622;22;20188;-87
2022/12/30 06:26:39;;;;;;;14.43;6.90;;;;;;;;;;6300548;22;20211;-89
2022/12/30 06:29:44;;;;;;;13.93;7.10;;;;;;;;;;6299073;22;20173;-89
2022/12/30 06:32:51;;;;;;;14.37;6.67;;;;;;;;;;6299900;22;20272;-89
2022/12/30 06:35:56;;;;;;;14.90;6.87;;;;;;;;;;6300596;22;20173;-90
2022/12/30 06:39:01;;;;;;;14.83;6.83;;;;;;;;;;6301718;22;20164;-89
2022/12/30 06:42:06;;;;;;;15.90;6.50;;;;;;;;;;6300864;22;20226;-87
2022/12/30 06:45:11;;;;;;;18.20;7.20;;;;;;;;;;6287256;22;20205;-88
2022/12/30 06:48:17;;;;;;;13.90;6.93;;;;;;;;;;6288422;22;20161;-89
2022/12/30 06:51:23;;;;;;;17.03;7.03;;;;;;;;;;6288186;22;20289;-89
2022/12/30 06:54:27;;;;;;;12.57;6.47;;;;;;;;;;6288201;22;20166;-91
2022/12/30 06:57:33;;;;;;;17.40;7.30;;;;;;;;;;6286218;22;20162;-92
2022/12/30 07:00:38;;;;;;;12.50;6.37;;;;;;;;;;6288182;22;20260;-89
2022/12/30 07:03:45;;;;;;;14.80;6.13;;;;;;;;;;6287180;22;20166;-91
2022/12/30 07:06:49;;;;;;;15.37;8.93;;;;;;;;;;6287432;22;20169;-88
2022/12/30 07:09:54;;;;;;;15.17;6.77;;;;;;;;;;6287185;22;20169;-88
2022/12/30 07:12:59;;;;;;;14.93;7.23;;;;;;;;;;6288578;22;20174;-90
2022/12/30 07:16:04;;;;;;;15.30;8.03;;;;;;;;;;6288094;22;20236;-90
2022/12/30 07:19:11;;;;;;;14.43;7.70;;;;;;;;;;6285338;22;20252;-87
2022/12/30 07:22:16;;;;;;;15.10;7.43;;;;;;;;;;6287351;22;20165;-88
2022/12/30 07:25:21;;;;;;;14.70;6.40;;;;;;;;;;6287011;22;20301;-89
2022/12/30 07:28:26;;;;;;;13.20;5.77;;;;;;;;;;6287159;22;20184;-89
2022/12/30 07:31:30;;;;;;;12.00;6.10;;;;;;;;;;6286012;22;20174;-88
2022/12/30 07:34:38;;;;;;;15.67;6.30;;;;;;;;;;6284592;22;20157;-88
2022/12/30 07:37:43;;;;;;;13.63;6.33;;;;;;;;;;6286454;22;20218;-89
2022/12/30 07:40:48;;;;;;;16.90;7.50;;;;;;;;;;6284772;22;20189;-88
2022/12/30 07:43:53;;;;;;;13.43;6.63;;;;;;;;;;6289878;22;20184;-89
2022/12/30 07:46:59;;;;;;;13.90;6.40;;;;;;;;;;6298860;22;20211;-90
2022/12/30 07:50:06;;;;;;;13.30;6.17;;;;;;;;;;6297924;22;20181;-91
2022/12/30 07:53:11;;;;;;;11.23;6.13;;;;;;;;;;6297599;22;20177;-89
2022/12/30 07:56:16;;;;;;;12.47;6.10;;;;;;;;;;6317015;22;20173;-88
2022/12/30 07:59:21;;;;;;;13.77;6.30;;;;;;;;;;6299441;22;20193;-90
2022/12/30 08:02:26;;;;;;;12.83;7.37;;;;;;;;;;6300544;22;20180;-89
2022/12/30 08:05:33;;;;;;;16.63;6.60;;;;;;;;;;6298674;22;20188;-89
2022/12/30 08:08:38;;;;;;;20.47;8.23;;;;;;;;;;6301212;22;20173;-87
2022/12/30 08:11:43;;;;;;;13.70;6.43;;;;;;;;;;6301822;22;20211;-90
2022/12/30 08:14:48;;;;;;;14.37;6.70;;;;;;;;;;6301442;22;20161;-89
2022/12/30 08:17:53;;;;;;;13.40;6.30;;;;;;;;;;6301450;22;20499;-90
2022/12/30 08:21:01;;;;;;;13.60;6.30;;;;;;;;;;6302234;22;20239;-89
2022/12/30 08:24:06;;;;;;;14.13;5.77;;;;;;;;;;6300474;22;20639;-88
2022/12/30 08:27:11;;;;;;;9.37;5.67;;;;;;;;;;6302491;22;20169;-89
2022/12/30 08:30:16;;;;;;;12.63;6.03;;;;;;;;;;6300774;22;20169;-90
2022/12/30 08:33:21;;;;;;;10.47;5.47;;;;;;;;;;6301942;22;20165;-88
2022/12/30 08:36:29;;;;;;;13.10;6.27;;;;;;;;;;6300735;22;20170;-90
2022/12/30 08:39:33;;;;;;;9.37;5.30;;;;;;;;;;6299708;22;20165;-88
2022/12/30 08:42:42;;;;;;;15.97;6.03;;;;;;;;;;6300820;22;20153;-88
2022/12/30 08:45:46;;;;;;;12.00;6.27;;;;;;;;;;6300685;22;20196;-90
2022/12/30 08:48:51;;;;;;;10.20;5.60;;;;;;;;;;6298614;22;20247;-89
2022/12/30 08:51:58;;;;;;;13.53;5.60;;;;;;;;;;6318040;22;20217;-88
2022/12/30 08:55:03;;;;;;;12.47;6.17;;;;;;;;;;6299110;22;20243;-90
2022/12/30 08:58:08;;;;;;;14.67;6.67;;;;;;;;;;6299752;22;20223;-89
2022/12/30 09:01:14;;;;;;;13.20;6.47;;;;;;;;;;6299408;22;20258;-89
2022/12/30 09:04:18;;;;;;;17.37;7.77;;;;;;;;;;6300174;22;20169;-90
2022/12/30 09:07:25;;;;;;;12.87;6.93;;;;;;;;;;6299473;22;20177;-90
2022/12/30 09:10:29;;;;;;;21.30;7.70;;;;;;;;;;6301844;22;20496;-90
2022/12/30 09:13:44;;;;;;;17.30;8.03;;;;;;;;;;6299828;22;20239;-89
2022/12/30 09:16:49;;;;;;;15.20;7.27;;;;;;;;;;6298758;22;20165;-90
2022/12/30 09:19:54;;;;;;;14.50;6.97;;;;;;;;;;6300266;22;20288;-90
2022/12/30 09:23:00;;;;;;;23.87;7.60;;;;;;;;;;6299950;22;20172;-90
2022/12/30 09:26:06;;;;;;;13.57;6.70;;;;;;;;;;6299130;22;20647;-90
2022/12/30 09:29:11;;;;;;;14.40;7.03;;;;;;;;;;6298856;22;20161;-87
2022/12/30 09:32:16;;;;;;;13.60;6.70;;;;;;;;;;6300357;22;20203;-90
2022/12/30 09:35:21;;;;;;;15.30;7.43;;;;;;;;;;6300675;22;20172;-89
2022/12/30 09:38:28;;;;;;;13.97;6.83;;;;;;;;;;6301005;22;20168;-87
2022/12/30 09:45:27;;;;;;;13.03;7.00;;;;;;;;;;6299276;22;20237;-87
2022/12/30 09:48:36;;;;;;;13.30;6.57;;;;;;;;;;6305771;22;20165;-87
2022/12/30 09:51:44;;;;;;;14.17;6.53;;;;;;;;;;6300120;22;20166;-89
2022/12/30 09:54:52;;;;;;;30.77;13.20;;;;;;;;;;6301633;22;20207;-90
2022/12/30 09:58:00;;;;;;;106.77;35.13;;;;;;;;;;6298703;22;20207;-90
2022/12/30 10:01:09;;;;;;;16.23;8.47;;;;;;;;;;6298511;22;20528;-89
2022/12/30 10:04:16;;;;;;;10.13;6.03;;;;;;;;;;6300542;22;20157;-89
2022/12/30 10:07:25;;;;;;;13.73;7.20;;;;;;;;;;6300199;22;20169;-89
2022/12/30 10:10:36;;;;;;;15.43;7.40;;;;;;;;;;6298291;22;20166;-88
2022/12/30 10:13:45;;;;;;;19.50;9.83;;;;;;;;;;6297761;22;20149;-89
2022/12/30 10:16:57;;;;;;;19.90;10.00;;;;;;;;;;6298587;22;20164;-89
2022/12/30 10:20:06;;;;;;;36.70;15.00;;;;;;;;;;6300708;22;20172;-91
2022/12/30 10:23:16;;;;;;;28.13;12.63;;;;;;;;;;6303725;22;20169;-87
2022/12/30 10:26:24;;;;;;;23.70;10.30;;;;;;;;;;6303894;22;20199;-88
2022/12/30 10:29:31;;;;;;;17.33;7.47;;;;;;;;;;6300727;22;20170;-87
2022/12/30 10:32:38;;;;;;;11.87;6.07;;;;;;;;;;6297825;22;20668;-90
2022/12/30 10:35:44;;;;;;;13.47;6.17;;;;;;;;;;6303558;22;20176;-88
2022/12/30 10:38:49;;;;;;;14.00;7.07;;;;;;;;;;6301999;22;20184;-89
2022/12/30 10:42:06;;;;;;;13.73;6.93;;;;;;;;;;6299689;22;20192;-89
2022/12/30 10:45:20;;;;;;;13.38;6.82;;;;;;;;;;6299108;22;20319;-90
2022/12/30 10:48:33;;;;;;;13.40;6.90;;;;;;;;;;6299964;22;20279;-87
2022/12/30 10:51:39;;;;;;;13.10;7.27;;;;;;;;;;6299557;22;20165;-86
2022/12/30 10:54:46;;;;;;;9.38;5.57;;;;;;;;;;6316537;22;20185;-88
2022/12/30 10:57:54;;;;;;;10.10;4.82;;;;;;;;;;6300117;22;20165;-89
2022/12/30 11:01:00;;;;;;;10.48;4.45;;;;;;;;;;6301401;22;20196;-90
2022/12/30 11:04:05;;;;;;;8.13;4.10;;;;;;;;;;6298596;22;20169;-89
2022/12/30 11:07:11;;;;;;;7.55;3.90;;;;;;;;;;6301321;22;20204;-89
2022/12/30 11:10:21;;;;;;;7.03;4.05;;;;;;;;;;6297692;22;20165;-90
2022/12/30 11:16:50;;;;;;;8.55;3.67;;;;;;;;;;6299974;22;20173;-89
2022/12/30 11:19:56;;;;;;;6.22;3.70;;;;;;;;;;6298251;22;20169;-86
2022/12/30 11:23:02;;;;;;;8.43;3.65;;;;;;;;;;6299504;22;20700;-88
2022/12/30 11:26:08;;;;;;;7.22;4.10;;;;;;;;;;6297610;22;20218;-89
2022/12/30 11:29:17;;;;;;;8.57;4.60;;;;;;;;;;6300220;22;20173;-89
2022/12/30 11:32:22;;;;;;;13.07;4.70;;;;;;;;;;6302040;22;20168;-88
2022/12/30 11:35:38;;;;;;;10.15;4.40;;;;;;;;;;6300857;22;20223;-88
2022/12/30 11:38:44;;;;;;;7.10;3.30;;;;;;;;;;6302131;22;20276;-89
2022/12/30 11:41:51;;;;;;;10.88;4.55;;;;;;;;;;6302677;22;20263;-89
2022/12/30 11:45:11;;;;;;;8.35;3.33;;;;;;;;;;6302909;22;20187;-86
2022/12/30 11:48:20;;;;;;;7.40;2.80;;;;;;;;;;6304959;22;20173;-92
2022/12/30 11:51:26;;;;;;;6.43;2.47;;;;;;;;;;6303985;22;20216;-89
2022/12/30 11:54:34;;;;;;;4.30;2.60;;;;;;;;;;6301833;22;20295;-86
2022/12/30 11:57:42;;;;;;;5.03;2.75;;;;;;;;;;6323278;22;20161;-88
2022/12/30 12:00:47;;;;;;;5.78;2.88;;;;;;;;;;6302025;22;20189;-87
2022/12/30 12:03:59;;;;;;;3.83;2.05;;;;;;;;;;6310364;22;20245;-90
2022/12/30 12:07:04;;;;;;;5.13;2.17;;;;;;;;;;6305050;22;20185;-88
2022/12/30 12:10:19;;;;;;;8.90;3.63;;;;;;;;;;6303085;22;20177;-89
2022/12/30 12:13:27;;;;;;;4.53;2.22;;;;;;;;;;6303057;22;20231;-90
2022/12/30 12:16:35;;;;;;;5.53;1.90;;;;;;;;;;6301104;22;20157;-88
2022/12/30 12:19:44;;;;;;;6.22;2.60;;;;;;;;;;6302232;22;20177;-88
2022/12/30 12:22:56;;;;;;;4.57;2.33;;;;;;;;;;6303213;22;20243;-89
2022/12/30 12:26:06;;;;;;;5.88;2.53;;;;;;;;;;6302194;22;20169;-89
2022/12/30 12:29:12;;;;;;;7.30;2.78;;;;;;;;;;6301199;22;20172;-90
2022/12/30 12:32:30;;;;;;;5.55;2.20;;;;;;;;;;6301128;22;20529;-87
2022/12/30 12:35:43;;;;;;;4.50;1.40;;;;;;;;;;6303918;22;20224;-88
2022/12/30 12:38:54;;;;;;;3.28;1.45;;;;;;;;;;6302216;22;20169;-87
2022/12/30 12:42:01;;;;;;;5.88;2.00;;;;;;;;;;6302414;22;20264;-88
2022/12/30 12:45:17;;;;;;;4.22;1.40;;;;;;;;;;6301768;22;20235;-89
2022/12/30 12:48:31;;;;;;;4.25;1.40;;;;;;;;;;6302432;22;20169;-90
2022/12/30 12:51:44;;;;;;;3.35;1.40;;;;;;;;;;6300904;22;20231;-88
2022/12/30 12:55:04;;;;;;;7.43;1.55;;;;;;;;;;6301935;22;20165;-88
2022/12/30 12:58:13;;;;;;;10.25;2.10;;;;;;;;;;6302945;22;20160;-89
2022/12/30 13:01:22;;;;;;;3.40;2.35;;;;;;;;;;6303610;22;20188;-88
2022/12/30 13:04:32;;;;;;;13.77;4.05;;;;;;;;;;6302303;22;20169;-88
2022/12/30 13:07:47;;;;;;;8.57;2.67;;;;;;;;;;6303520;22;20169;-88
2022/12/30 13:10:54;;;;;;;13.45;4.40;;;;;;;;;;6302168;22;20165;-90
2022/12/30 13:14:03;;;;;;;6.15;2.67;;;;;;;;;;6302225;22;20157;-88
2022/12/30 13:17:12;;;;;;;5.80;2.30;;;;;;;;;;6302858;22;20272;-90
2022/12/30 13:20:19;;;;;;;7.57;2.78;;;;;;;;;;6304453;22;20165;-87
2022/12/30 13:23:28;;;;;;;4.65;2.60;;;;;;;;;;6302852;22;20211;-88
2022/12/30 13:26:34;;;;;;;8.20;2.65;;;;;;;;;;6306989;22;20189;-87
2022/12/30 13:29:40;;;;;;;6.10;2.20;;;;;;;;;;6304303;22;20208;-89
2022/12/30 13:32:49;;;;;;;5.18;1.67;;;;;;;;;;6302103;22;20168;-88
2022/12/30 13:35:56;;;;;;;7.70;2.97;;;;;;;;;;6301003;22;20169;-88
2022/12/30 13:39:08;;;;;;;7.15;3.03;;;;;;;;;;6301192;22;20161;-90
2022/12/30 13:42:32;;;;;;;5.43;1.73;;;;;;;;;;6301145;22;20298;-88
2022/12/30 13:45:43;;;;;;;3.63;1.38;;;;;;;;;;6300533;22;20185;-90
2022/12/30 13:48:52;;;;;;;4.07;1.27;;;;;;;;;;6300763;22;20165;-89
2022/12/30 13:51:58;;;;;;;3.60;1.60;;;;;;;;;;6300247;22;20169;-88
2022/12/30 13:55:19;;;;;;;3.95;1.50;;;;;;;;;;6299165;22;20164;-86
2022/12/30 13:58:28;;;;;;;4.63;1.30;;;;;;;;;;6301023;22;20165;-92
2022/12/30 14:01:35;;;;;;;12.18;2.10;;;;;;;;;;6301756;22;20192;-90
2022/12/30 14:04:45;;;;;;;5.60;1.50;;;;;;;;;;6301315;22;20168;-90
2022/12/30 14:07:51;;;;;;;3.65;2.08;;;;;;;;;;6304586;22;20165;-89
2022/12/30 14:11:08;;;;;;;4.70;1.77;;;;;;;;;;6305280;22;20152;-88
2022/12/30 14:14:19;;;;;;;10.30;4.18;;;;;;;;;;6303491;22;20494;-88
2022/12/30 14:17:26;;;;;;;11.30;3.95;;;;;;;;;;6302657;22;20258;-88
2022/12/30 14:20:32;;;;;;;8.52;2.20;;;;;;;;;;6302174;22;20169;-88
2022/12/30 14:23:40;;;;;;;7.20;1.88;;;;;;;;;;6305701;22;20237;-88
2022/12/30 14:26:48;;;;;;;6.65;1.58;;;;;;;;;;6302336;22;20217;-88
2022/12/30 14:30:02;;;;;;;8.23;2.22;;;;;;;;;;6301147;22;20280;-90
2022/12/30 14:33:09;;;;;;;8.90;3.20;;;;;;;;;;6301461;22;20168;-89
2022/12/30 14:36:19;;;;;;;4.97;2.10;;;;;;;;;;6303211;22;20160;-89
2022/12/30 14:39:24;;;;;;;9.65;3.13;;;;;;;;;;6304013;22;20221;-90
2022/12/30 14:42:32;;;;;;;10.30;4.13;;;;;;;;;;6301735;22;20266;-90
2022/12/30 14:45:37;;;;;;;8.50;3.65;;;;;;;;;;6301879;22;20500;-89
2022/12/30 14:48:57;;;;;;;6.63;2.80;;;;;;;;;;6302595;22;20189;-90
2022/12/30 14:52:06;;;;;;;5.13;1.98;;;;;;;;;;6300938;22;20173;-88
2022/12/30 14:55:12;;;;;;;4.43;2.20;;;;;;;;;;6300558;22;20184;-88
2022/12/30 14:58:22;;;;;;;6.82;2.60;;;;;;;;;;6301584;22;20169;-88
2022/12/30 15:01:27;;;;;;;11.38;2.97;;;;;;;;;;6300029;22;20491;-87
2022/12/30 15:04:32;;;;;;;8.45;3.30;;;;;;;;;;6299493;22;20169;-87
2022/12/30 15:07:38;;;;;;;10.55;5.25;;;;;;;;;;6301734;22;20165;-89
2022/12/30 15:10:47;;;;;;;12.95;6.55;;;;;;;;;;6300647;22;20169;-89
2022/12/30 15:13:56;;;;;;;10.52;4.32;;;;;;;;;;6300624;22;20184;-88
2022/12/30 15:17:12;;;;;;;5.90;3.47;;;;;;;;;;6300543;22;20169;-88
2022/12/30 15:20:27;;;;;;;8.47;3.53;;;;;;;;;;6298067;22;20180;-90
2022/12/30 15:23:33;;;;;;;12.53;4.67;;;;;;;;;;6298854;22;20193;-89
2022/12/30 15:26:39;;;;;;;10.73;4.70;;;;;;;;;;6299477;22;20173;-88
2022/12/30 15:29:45;;;;;;;9.17;3.90;;;;;;;;;;6299571;22;20169;-90
2022/12/30 15:32:57;;;;;;;8.47;3.43;;;;;;;;;;6299610;22;20215;-88
2022/12/30 15:36:03;;;;;;;11.07;3.60;;;;;;;;;;6301135;22;20221;-88
2022/12/30 15:39:08;;;;;;;9.63;4.83;;;;;;;;;;6301234;22;20212;-88
2022/12/30 15:42:16;;;;;;;10.07;3.70;;;;;;;;;;6299467;22;20269;-88
2022/12/30 15:45:41;;;;;;;9.33;4.10;;;;;;;;;;6300899;22;20192;-88
2022/12/30 15:48:46;;;;;;;8.10;3.37;;;;;;;;;;6301020;22;20263;-88
2022/12/30 15:51:53;;;;;;;6.87;3.00;;;;;;;;;;6301183;22;20168;-91
2022/12/30 15:55:00;;;;;;;9.93;3.87;;;;;;;;;;6299896;22;20169;-89
2022/12/30 15:58:07;;;;;;;12.90;5.30;;;;;;;;;;6299043;22;20170;-89
2022/12/30 16:01:17;;;;;;;8.93;4.40;;;;;;;;;;6301497;22;20219;-88
2022/12/30 16:04:23;;;;;;;16.40;5.63;;;;;;;;;;6300228;22;20204;-90
2022/12/30 16:07:30;;;;;;;12.13;4.73;;;;;;;;;;6300949;22;20187;-89
2022/12/30 16:11:00;;;;;;;12.70;5.30;;;;;;;;;;6298948;22;20165;-87
2022/12/30 16:14:17;;;;;;;16.53;5.17;;;;;;;;;;6299919;22;20170;-89
2022/12/30 16:17:25;;;;;;;10.90;4.93;;;;;;;;;;6302699;22;20288;-88
2022/12/30 16:20:32;;;;;;;28.63;10.33;;;;;;;;;;6301283;22;20173;-89
2022/12/30 16:23:38;;;;;;;54.67;19.27;;;;;;;;;;6298260;22;20527;-86
2022/12/30 16:26:52;;;;;;;32.13;13.63;;;;;;;;;;6320595;22;20168;-88
2022/12/30 16:29:56;;;;;;;18.87;8.13;;;;;;;;;;6303887;22;20168;-88
2022/12/30 16:33:14;;;;;;;20.47;8.43;;;;;;;;;;6301142;22;20207;-88
2022/12/30 16:36:20;;;;;;;16.50;7.03;;;;;;;;;;6303103;22;20166;-90
2022/12/30 16:39:26;;;;;;;14.00;6.13;;;;;;;;;;6304558;22;20165;-90
2022/12/30 16:42:32;;;;;;;14.80;7.00;;;;;;;;;;6302140;22;20241;-87
2022/12/30 16:45:39;;;;;;;15.57;7.13;;;;;;;;;;6321237;22;20188;-90
2022/12/30 16:48:56;;;;;;;19.73;10.10;;;;;;;;;;6301507;22;20148;-90
2022/12/30 16:52:04;;;;;;;69.30;28.30;;;;;;;;;;6302061;22;20165;-90
2022/12/30 16:55:14;;;;;;;26.17;12.30;;;;;;;;;;6302596;22;20169;-90
2022/12/30 16:58:19;;;;;;;22.63;8.70;;;;;;;;;;6300841;22;20739;-88
2022/12/30 17:01:27;;;;;;;35.00;13.50;;;;;;;;;;6299600;22;20161;-89
2022/12/30 17:04:33;;;;;;;34.90;12.20;;;;;;;;;;6300428;22;20604;-90
2022/12/30 17:07:38;;;;;;;25.43;9.43;;;;;;;;;;6299428;22;20164;-88
2022/12/30 17:10:53;;;;;;;22.13;8.93;;;;;;;;;;6300254;22;20188;-89
2022/12/30 17:13:59;;;;;;;19.97;8.40;;;;;;;;;;6299050;22;20164;-89
2022/12/30 17:17:05;;;;;;;17.57;7.87;;;;;;;;;;6297582;22;20218;-89
2022/12/30 17:20:14;;;;;;;17.73;7.57;;;;;;;;;;6298924;22;20211;-89
2022/12/30 17:23:25;;;;;;;20.60;9.03;;;;;;;;;;6299244;22;20200;-89
2022/12/30 17:26:30;;;;;;;32.73;9.13;;;;;;;;;;6300467;22;20161;-90
2022/12/30 17:29:36;;;;;;;26.20;8.93;;;;;;;;;;6301826;22;20585;-90
2022/12/30 17:32:43;;;;;;;83.70;32.50;;;;;;;;;;6302017;22;20173;-91
2022/12/30 17:35:49;;;;;;;181.80;61.97;;;;;;;;;;6301309;22;20250;-89
2022/12/30 17:38:55;;;;;;;26.43;9.77;;;;;;;;;;6300901;22;20173;-90
2022/12/30 17:42:00;;;;;;;21.60;8.70;;;;;;;;;;6300711;22;20169;-89
2022/12/30 17:45:05;;;;;;;21.43;9.43;;;;;;;;;;6299435;22;20530;-90
2022/12/30 17:48:15;;;;;;;24.63;8.07;;;;;;;;;;6298538;22;20165;-89
2022/12/30 17:51:24;;;;;;;19.70;8.03;;;;;;;;;;6298070;22;20235;-89
2022/12/30 17:54:30;;;;;;;32.53;11.57;;;;;;;;;;6300789;22;20312;-89
2022/12/30 17:57:52;;;;;;;23.53;9.67;;;;;;;;;;6297840;22;20165;-90
2022/12/30 18:00:57;;;;;;;27.63;9.03;;;;;;;;;;6299155;22;20161;-90
2022/12/30 18:04:02;;;;;;;33.97;10.93;;;;;;;;;;6297998;22;20192;-89
2022/12/30 18:07:09;;;;;;;35.03;11.20;;;;;;;;;;6297339;22;20165;-86
2022/12/30 18:10:15;;;;;;;27.77;10.20;;;;;;;;;;6298910;22;20238;-89
2022/12/30 18:13:20;;;;;;;22.53;8.73;;;;;;;;;;6297654;22;20178;-89
2022/12/30 18:16:26;;;;;;;25.27;10.47;;;;;;;;;;6298205;22;20160;-89
2022/12/30 18:19:33;;;;;;;23.83;9.60;;;;;;;;;;6296880;22;20172;-89
2022/12/30 18:22:39;;;;;;;22.27;8.90;;;;;;;;;;6298455;22;20220;-89
2022/12/30 18:25:45;;;;;;;23.50;10.17;;;;;;;;;;6298085;22;20161;-90
2022/12/30 18:28:50;;;;;;;21.93;8.73;;;;;;;;;;6297288;22;20165;-90
2022/12/30 18:31:57;;;;;;;16.70;8.10;;;;;;;;;;6300955;22;20165;-89
2022/12/30 18:35:03;;;;;;;22.83;8.97;;;;;;;;;;6297329;22;20173;-89
2022/12/30 18:38:13;;;;;;;17.00;8.73;;;;;;;;;;6297843;22;20243;-89
2022/12/30 18:41:18;;;;;;;18.90;7.87;;;;;;;;;;6297968;22;20169;-88
2022/12/30 18:44:24;;;;;;;30.47;11.17;;;;;;;;;;6298881;22;20207;-89
2022/12/30 18:47:29;;;;;;;27.67;10.33;;;;;;;;;;6297161;22;20554;-88
2022/12/30 18:50:34;;;;;;;28.23;11.00;;;;;;;;;;6296007;22;20177;-90
2022/12/30 18:53:41;;;;;;;28.17;10.90;;;;;;;;;;6297163;22;20164;-90
2022/12/30 18:56:49;;;;;;;33.37;14.97;;;;;;;;;;6297377;22;20181;-90
2022/12/30 18:59:54;;;;;;;21.03;9.80;;;;;;;;;;6298880;22;20165;-89
2022/12/30 19:03:00;;;;;;;24.87;10.87;;;;;;;;;;6300800;22;20693;-87
2022/12/30 19:06:07;;;;;;;28.17;10.83;;;;;;;;;;6296117;22;20624;-88
2022/12/30 19:09:15;;;;;;;25.70;10.37;;;;;;;;;;6297684;22;20153;-90
2022/12/30 19:12:20;;;;;;;27.23;11.90;;;;;;;;;;6297311;22;20169;-91
2022/12/30 19:15:25;;;;;;;23.43;11.13;;;;;;;;;;6296136;22;20161;-89
2022/12/30 19:18:30;;;;;;;25.23;11.33;;;;;;;;;;6295983;22;20169;-90
2022/12/30 19:21:36;;;;;;;21.80;9.90;;;;;;;;;;6297197;22;20170;-88
2022/12/30 19:24:43;;;;;;;24.20;10.57;;;;;;;;;;6298801;22;20176;-91
2022/12/30 19:27:48;;;;;;;21.00;10.17;;;;;;;;;;6297668;22;20167;-91
2022/12/30 19:30:53;;;;;;;20.30;10.13;;;;;;;;;;6297764;22;20255;-89
2022/12/30 19:33:59;;;;;;;22.17;9.63;;;;;;;;;;6297903;22;20173;-90
2022/12/30 19:37:04;;;;;;;19.97;9.60;;;;;;;;;;6299625;22;20165;-91
2022/12/30 19:40:11;;;;;;;22.37;9.70;;;;;;;;;;6297600;22;20252;-87
2022/12/30 19:43:16;;;;;;;22.60;9.10;;;;;;;;;;6297805;22;20192;-90
2022/12/30 19:46:21;;;;;;;24.17;10.40;;;;;;;;;;6297773;22;20165;-90
2022/12/30 19:49:26;;;;;;;24.70;10.50;;;;;;;;;;6298891;22;20177;-90
2022/12/30 19:52:31;;;;;;;24.73;11.33;;;;;;;;;;6299103;22;20164;-88
2022/12/30 19:55:41;;;;;;;21.33;10.07;;;;;;;;;;6297897;22;20204;-89
2022/12/30 19:58:46;;;;;;;29.30;11.50;;;;;;;;;;6299458;22;20221;-87
2022/12/30 20:01:53;;;;;;;24.23;10.70;;;;;;;;;;6301225;22;20165;-90
2022/12/30 20:04:57;;;;;;;23.53;10.10;;;;;;;;;;6300446;22;20169;-89
2022/12/30 20:08:02;;;;;;;18.87;9.43;;;;;;;;;;6301527;22;20246;-90
2022/12/30 20:11:10;;;;;;;20.77;9.53;;;;;;;;;;6299504;22;20209;-90
2022/12/30 20:14:16;;;;;;;22.80;9.63;;;;;;;;;;6299312;22;20160;-89
2022/12/30 20:17:20;;;;;;;19.57;8.93;;;;;;;;;;6299181;22;20180;-87
2022/12/30 20:20:25;;;;;;;19.20;8.70;;;;;;;;;;6298958;22;20215;-89
2022/12/30 20:23:31;;;;;;;20.60;9.57;;;;;;;;;;6297824;22;20755;-89
2022/12/30 20:26:38;;;;;;;36.77;16.80;;;;;;;;;;6298267;22;20211;-87
2022/12/30 20:29:44;;;;;;;33.40;15.13;;;;;;;;;;6299334;22;20180;-87
2022/12/30 20:32:49;;;;;;;27.00;10.70;;;;;;;;;;6298631;22;20161;-88
2022/12/30 20:35:54;;;;;;;33.23;13.80;;;;;;;;;;6297726;22;20545;-88
2022/12/30 20:39:00;;;;;;;32.37;14.07;;;;;;;;;;6298851;22;20219;-88
2022/12/30 20:42:06;;;;;;;26.57;10.20;;;;;;;;;;6298792;22;20180;-90
2022/12/30 20:45:12;;;;;;;25.73;9.53;;;;;;;;;;6298414;22;20258;-89
2022/12/30 20:48:17;;;;;;;25.57;9.80;;;;;;;;;;6298805;22;20164;-89
2022/12/30 20:51:23;;;;;;;20.47;9.80;;;;;;;;;;6298595;22;20161;-88